sensor_id;sensor_type;location;lat;lon;timestamp;pressure;altitude;pressure_sealevel;temperature;humidity
78317;BME280;67572;50.930;18.276;2024-01-15T00:01:48;97114.50;;;0.41;82.70
78317;BME280;67572;50.930;18.276;2024-01-15T00:04:51;97114.03;;;0.49;82.50
78317;BME280;67572;50.930;18.276;2024-01-15T00:07:55;97129.13;;;0.44;82.46
78317;BME280;67572;50.930;18.276;2024-01-15T00:10:58;97117.75;;;0.45;82.72
78317;BME280;67572;50.930;18.276;2024-01-15T00:14:01;97117.34;;;0.22;82.77
78317;BME280;67572;50.930;18.276;2024-01-15T00:17:06;97114.28;;;0.30;83.58
78317;BME280;67572;50.930;18.276;2024-01-15T00:20:10;97111.31;;;0.36;84.14
78317;BME280;67572;50.930;18.276;2024-01-15T00:23:13;97112.13;;;0.37;84.20
78317;BME280;67572;50.930;18.276;2024-01-15T00:26:16;97110.38;;;0.37;84.42
78317;BME280;67572;50.930;18.276;2024-01-15T00:29:20;97105.69;;;0.28;84.48
78317;BME280;67572;50.930;18.276;2024-01-15T00:32:24;97087.41;;;0.42;84.44
78317;BME280;67572;50.930;18.276;2024-01-15T00:35:28;97084.59;;;0.45;84.35
78317;BME280;67572;50.930;18.276;2024-01-15T00:38:31;97080.88;;;0.35;84.14
78317;BME280;67572;50.930;18.276;2024-01-15T00:41:35;97076.47;;;0.21;84.51
78317;BME280;67572;50.930;18.276;2024-01-15T00:44:38;97067.31;;;0.28;85.06
78317;BME280;67572;50.930;18.276;2024-01-15T00:47:43;97061.72;;;0.35;84.96
78317;BME280;67572;50.930;18.276;2024-01-15T00:50:47;97066.22;;;0.33;85.13
78317;BME280;67572;50.930;18.276;2024-01-15T00:53:50;97055.56;;;0.21;85.97
78317;BME280;67572;50.930;18.276;2024-01-15T00:56:53;97053.50;;;0.12;87.21
78317;BME280;67572;50.930;18.276;2024-01-15T00:59:57;97047.44;;;0.26;87.53
78317;BME280;67572;50.930;18.276;2024-01-15T01:03:05;97041.00;;;0.17;87.78
78317;BME280;67572;50.930;18.276;2024-01-15T01:06:09;97038.75;;;0.11;88.00
78317;BME280;67572;50.930;18.276;2024-01-15T01:09:12;97039.50;;;0.27;88.04
78317;BME280;67572;50.930;18.276;2024-01-15T01:12:16;97044.38;;;0.19;88.05
78317;BME280;67572;50.930;18.276;2024-01-15T01:15:19;97038.94;;;0.22;87.95
78317;BME280;67572;50.930;18.276;2024-01-15T01:18:24;97031.56;;;0.15;87.69
78317;BME280;67572;50.930;18.276;2024-01-15T01:21:28;97025.88;;;0.22;87.68
78317;BME280;67572;50.930;18.276;2024-01-15T01:24:31;97022.72;;;0.17;87.91
78317;BME280;67572;50.930;18.276;2024-01-15T01:27:35;97013.22;;;0.31;87.64
78317;BME280;67572;50.930;18.276;2024-01-15T01:30:39;97006.09;;;0.18;86.93
78317;BME280;67572;50.930;18.276;2024-01-15T01:33:44;97005.06;;;0.21;86.66
78317;BME280;67572;50.930;18.276;2024-01-15T01:36:47;97002.34;;;0.22;86.04
78317;BME280;67572;50.930;18.276;2024-01-15T01:39:51;97005.25;;;0.32;84.91
78317;BME280;67572;50.930;18.276;2024-01-15T01:42:54;96999.81;;;0.49;84.31
78317;BME280;67572;50.930;18.276;2024-01-15T01:45:58;96997.31;;;0.34;83.94
78317;BME280;67572;50.930;18.276;2024-01-15T01:49:04;96990.06;;;0.39;83.01
78317;BME280;67572;50.930;18.276;2024-01-15T01:52:09;96979.50;;;0.40;82.79
78317;BME280;67572;50.930;18.276;2024-01-15T01:55:13;96975.00;;;0.28;82.34
78317;BME280;67572;50.930;18.276;2024-01-15T01:58:17;96964.44;;;0.30;82.04
78317;BME280;67572;50.930;18.276;2024-01-15T02:01:21;96962.41;;;0.35;81.80
78317;BME280;67572;50.930;18.276;2024-01-15T02:04:26;96963.13;;;0.37;81.28
78317;BME280;67572;50.930;18.276;2024-01-15T02:07:31;96961.09;;;0.42;81.16
78317;BME280;67572;50.930;18.276;2024-01-15T02:10:35;96952.53;;;0.25;81.17
78317;BME280;67572;50.930;18.276;2024-01-15T02:13:39;96947.88;;;0.31;80.79
78317;BME280;67572;50.930;18.276;2024-01-15T02:16:42;96953.34;;;0.40;80.52
78317;BME280;67572;50.930;18.276;2024-01-15T02:19:47;96944.56;;;0.41;80.29
78317;BME280;67572;50.930;18.276;2024-01-15T02:22:51;96943.41;;;0.45;80.04
78317;BME280;67572;50.930;18.276;2024-01-15T02:25:56;96940.81;;;0.45;79.87
78317;BME280;67572;50.930;18.276;2024-01-15T02:28:59;96934.78;;;0.31;79.80
78317;BME280;67572;50.930;18.276;2024-01-15T02:32:04;96910.78;;;0.38;79.44
78317;BME280;67572;50.930;18.276;2024-01-15T02:35:08;96913.94;;;0.43;79.37
78317;BME280;67572;50.930;18.276;2024-01-15T02:38:11;96903.69;;;0.40;79.33
78317;BME280;67572;50.930;18.276;2024-01-15T02:41:16;96892.00;;;0.46;79.23
78317;BME280;67572;50.930;18.276;2024-01-15T02:44:19;96889.56;;;0.43;79.29
78317;BME280;67572;50.930;18.276;2024-01-15T02:47:22;96893.59;;;0.34;79.63
78317;BME280;67572;50.930;18.276;2024-01-15T02:50:26;96889.94;;;0.37;79.12
78317;BME280;67572;50.930;18.276;2024-01-15T02:53:29;96887.78;;;0.43;79.05
78317;BME280;67572;50.930;18.276;2024-01-15T02:56:33;96875.94;;;0.38;79.22
78317;BME280;67572;50.930;18.276;2024-01-15T02:59:37;96874.09;;;0.40;79.04
78317;BME280;67572;50.930;18.276;2024-01-15T03:02:40;96874.53;;;0.46;78.52
78317;BME280;67572;50.930;18.276;2024-01-15T03:05:49;96877.28;;;0.58;78.58
78317;BME280;67572;50.930;18.276;2024-01-15T03:08:52;96880.28;;;0.51;78.13
78317;BME280;67572;50.930;18.276;2024-01-15T03:11:57;96869.00;;;0.51;78.41
78317;BME280;67572;50.930;18.276;2024-01-15T03:15:00;96871.94;;;0.59;77.93
78317;BME280;67572;50.930;18.276;2024-01-15T03:18:05;96867.31;;;0.50;77.87
78317;BME280;67572;50.930;18.276;2024-01-15T03:21:09;96869.09;;;0.49;77.84
78317;BME280;67572;50.930;18.276;2024-01-15T03:24:13;96866.38;;;0.51;78.17
78317;BME280;67572;50.930;18.276;2024-01-15T03:27:18;96864.38;;;0.42;78.26
78317;BME280;67572;50.930;18.276;2024-01-15T03:30:21;96863.97;;;0.48;78.17
78317;BME280;67572;50.930;18.276;2024-01-15T03:33:25;96872.44;;;0.24;80.86
78317;BME280;67572;50.930;18.276;2024-01-15T03:36:28;96874.38;;;-0.35;86.13
78317;BME280;67572;50.930;18.276;2024-01-15T03:39:31;96874.75;;;-0.26;88.56
78317;BME280;67572;50.930;18.276;2024-01-15T03:42:36;96865.50;;;-0.04;88.99
78317;BME280;67572;50.930;18.276;2024-01-15T03:45:40;96862.25;;;-0.07;88.23
78317;BME280;67572;50.930;18.276;2024-01-15T03:48:43;96857.63;;;0.11;86.87
78317;BME280;67572;50.930;18.276;2024-01-15T03:51:47;96856.91;;;0.09;85.46
78317;BME280;67572;50.930;18.276;2024-01-15T03:54:50;96846.16;;;0.13;84.32
78317;BME280;67572;50.930;18.276;2024-01-15T03:57:55;96839.50;;;0.22;82.96
78317;BME280;67572;50.930;18.276;2024-01-15T04:00:58;96845.28;;;0.27;82.34
78317;BME280;67572;50.930;18.276;2024-01-15T04:04:02;96845.16;;;0.28;81.25
78317;BME280;67572;50.930;18.276;2024-01-15T04:07:05;96834.59;;;0.30;80.33
78317;BME280;67572;50.930;18.276;2024-01-15T04:10:09;96839.66;;;0.33;80.13
78317;BME280;67572;50.930;18.276;2024-01-15T04:13:13;96838.63;;;0.36;79.76
78317;BME280;67572;50.930;18.276;2024-01-15T04:16:17;96843.22;;;0.32;79.49
78317;BME280;67572;50.930;18.276;2024-01-15T04:19:21;96834.66;;;0.43;79.06
78317;BME280;67572;50.930;18.276;2024-01-15T04:22:25;96831.44;;;0.52;79.16
78317;BME280;67572;50.930;18.276;2024-01-15T04:25:29;96839.16;;;0.41;78.93
78317;BME280;67572;50.930;18.276;2024-01-15T04:28:33;96837.09;;;0.46;78.90
78317;BME280;67572;50.930;18.276;2024-01-15T04:31:36;96826.38;;;0.36;78.89
78317;BME280;67572;50.930;18.276;2024-01-15T04:34:40;96826.28;;;0.38;79.08
78317;BME280;67572;50.930;18.276;2024-01-15T04:37:43;96826.78;;;0.30;78.55
78317;BME280;67572;50.930;18.276;2024-01-15T04:40:46;96818.53;;;0.36;78.67
78317;BME280;67572;50.930;18.276;2024-01-15T04:43:51;96805.56;;;0.35;78.79
78317;BME280;67572;50.930;18.276;2024-01-15T04:46:54;96810.81;;;0.35;78.50
78317;BME280;67572;50.930;18.276;2024-01-15T04:49:57;96810.19;;;0.44;78.19
78317;BME280;67572;50.930;18.276;2024-01-15T04:53:00;96808.91;;;0.37;78.18
78317;BME280;67572;50.930;18.276;2024-01-15T04:56:04;96807.13;;;0.37;78.08
78317;BME280;67572;50.930;18.276;2024-01-15T04:59:09;96797.22;;;0.42;77.89
78317;BME280;67572;50.930;18.276;2024-01-15T05:02:13;96797.00;;;0.33;77.54
78317;BME280;67572;50.930;18.276;2024-01-15T05:05:16;96805.91;;;0.43;77.80
78317;BME280;67572;50.930;18.276;2024-01-15T05:08:19;96802.84;;;0.36;77.72
78317;BME280;67572;50.930;18.276;2024-01-15T05:11:23;96807.25;;;0.36;77.69
78317;BME280;67572;50.930;18.276;2024-01-15T05:14:27;96804.94;;;0.31;77.73
78317;BME280;67572;50.930;18.276;2024-01-15T05:17:31;96809.47;;;0.42;77.46
78317;BME280;67572;50.930;18.276;2024-01-15T05:20:34;96811.59;;;0.22;77.77
78317;BME280;67572;50.930;18.276;2024-01-15T05:23:38;96802.97;;;0.35;77.63
78317;BME280;67572;50.930;18.276;2024-01-15T05:26:41;96805.53;;;0.22;78.21
78317;BME280;67572;50.930;18.276;2024-01-15T05:29:46;96801.13;;;0.22;78.04
78317;BME280;67572;50.930;18.276;2024-01-15T05:32:49;96801.44;;;0.18;77.96
78317;BME280;67572;50.930;18.276;2024-01-15T05:35:52;96802.78;;;0.11;77.72
78317;BME280;67572;50.930;18.276;2024-01-15T05:38:56;96806.31;;;0.37;77.52
78317;BME280;67572;50.930;18.276;2024-01-15T05:42:00;96805.97;;;0.28;77.23
78317;BME280;67572;50.930;18.276;2024-01-15T05:45:05;96809.19;;;0.19;77.29
78317;BME280;67572;50.930;18.276;2024-01-15T05:48:09;96798.28;;;0.13;77.64
78317;BME280;67572;50.930;18.276;2024-01-15T05:51:12;96802.78;;;0.11;77.38
78317;BME280;67572;50.930;18.276;2024-01-15T05:54:15;96789.50;;;0.14;77.58
78317;BME280;67572;50.930;18.276;2024-01-15T05:57:19;96801.53;;;0.16;77.71
78317;BME280;67572;50.930;18.276;2024-01-15T06:00:23;96795.03;;;0.09;77.79
78317;BME280;67572;50.930;18.276;2024-01-15T06:03:27;96798.16;;;0.14;77.91
78317;BME280;67572;50.930;18.276;2024-01-15T06:06:30;96789.63;;;-0.02;77.84
78317;BME280;67572;50.930;18.276;2024-01-15T06:09:33;96795.69;;;-0.02;77.85
78317;BME280;67572;50.930;18.276;2024-01-15T06:12:37;96789.72;;;0.11;77.84
78317;BME280;67572;50.930;18.276;2024-01-15T06:15:42;96780.69;;;0.02;78.03
78317;BME280;67572;50.930;18.276;2024-01-15T06:18:45;96785.56;;;-0.06;78.36
78317;BME280;67572;50.930;18.276;2024-01-15T06:21:49;96777.16;;;-0.11;78.52
78317;BME280;67572;50.930;18.276;2024-01-15T06:24:52;96790.97;;;-0.09;78.63
78317;BME280;67572;50.930;18.276;2024-01-15T06:27:55;96797.03;;;-0.09;78.97
78317;BME280;67572;50.930;18.276;2024-01-15T06:31:00;96789.88;;;-0.19;78.83
78317;BME280;67572;50.930;18.276;2024-01-15T06:34:04;96802.25;;;-0.09;79.42
78317;BME280;67572;50.930;18.276;2024-01-15T06:37:07;96806.94;;;-0.14;79.74
78317;BME280;67572;50.930;18.276;2024-01-15T06:40:11;96808.78;;;-0.16;80.33
78317;BME280;67572;50.930;18.276;2024-01-15T06:43:14;96800.13;;;-0.31;81.69
78317;BME280;67572;50.930;18.276;2024-01-15T06:46:22;96812.34;;;-0.31;83.33
78317;BME280;67572;50.930;18.276;2024-01-15T06:49:25;96824.88;;;-0.36;83.48
78317;BME280;67572;50.930;18.276;2024-01-15T06:52:29;96821.41;;;-0.22;83.07
78317;BME280;67572;50.930;18.276;2024-01-15T06:55:32;96825.78;;;-0.23;82.46
78317;BME280;67572;50.930;18.276;2024-01-15T06:58:35;96831.31;;;-0.28;82.13
78317;BME280;67572;50.930;18.276;2024-01-15T07:01:40;96843.53;;;-0.28;82.18
78317;BME280;67572;50.930;18.276;2024-01-15T07:04:43;96836.88;;;-0.19;81.30
78317;BME280;67572;50.930;18.276;2024-01-15T07:07:47;96846.13;;;-0.14;81.05
78317;BME280;67572;50.930;18.276;2024-01-15T07:10:50;96845.91;;;-0.11;80.50
78317;BME280;67572;50.930;18.276;2024-01-15T07:13:53;96842.00;;;-0.04;80.00
78317;BME280;67572;50.930;18.276;2024-01-15T07:16:58;96838.91;;;-0.10;80.02
78317;BME280;67572;50.930;18.276;2024-01-15T07:20:01;96851.81;;;-0.07;80.68
78317;BME280;67572;50.930;18.276;2024-01-15T07:23:05;96841.84;;;-0.15;80.47
78317;BME280;67572;50.930;18.276;2024-01-15T07:26:08;96855.72;;;-0.14;80.27
78317;BME280;67572;50.930;18.276;2024-01-15T07:29:12;96864.19;;;-0.11;80.56
78317;BME280;67572;50.930;18.276;2024-01-15T07:32:17;96840.59;;;-0.09;80.34
78317;BME280;67572;50.930;18.276;2024-01-15T07:35:20;96860.28;;;-0.18;80.70
78317;BME280;67572;50.930;18.276;2024-01-15T07:38:23;96851.72;;;-0.20;80.88
78317;BME280;67572;50.930;18.276;2024-01-15T07:41:26;96866.09;;;-0.27;80.97
78317;BME280;67572;50.930;18.276;2024-01-15T07:44:30;96868.03;;;-0.16;80.70
78317;BME280;67572;50.930;18.276;2024-01-15T07:47:34;96860.59;;;-0.22;80.77
78317;BME280;67572;50.930;18.276;2024-01-15T07:50:37;96876.78;;;-0.17;80.85
78317;BME280;67572;50.930;18.276;2024-01-15T07:53:41;96878.00;;;-0.23;80.73
78317;BME280;67572;50.930;18.276;2024-01-15T07:56:54;96867.38;;;-0.20;80.88
78317;BME280;67572;50.930;18.276;2024-01-15T07:59:57;96878.41;;;-0.15;80.48
78317;BME280;67572;50.930;18.276;2024-01-15T08:03:02;96882.03;;;-0.17;80.20
78317;BME280;67572;50.930;18.276;2024-01-15T08:06:06;96872.03;;;-0.11;79.84
78317;BME280;67572;50.930;18.276;2024-01-15T08:09:12;96879.88;;;-0.11;80.08
78317;BME280;67572;50.930;18.276;2024-01-15T08:12:16;96880.59;;;-0.09;79.49
78317;BME280;67572;50.930;18.276;2024-01-15T08:15:19;96880.91;;;0.01;79.70
78317;BME280;67572;50.930;18.276;2024-01-15T08:18:24;96868.38;;;-0.08;79.53
78317;BME280;67572;50.930;18.276;2024-01-15T08:21:27;96867.47;;;-0.07;79.69
78317;BME280;67572;50.930;18.276;2024-01-15T08:24:32;96873.31;;;0.11;79.07
78317;BME280;67572;50.930;18.276;2024-01-15T08:27:35;96869.88;;;0.10;78.80
78317;BME280;67572;50.930;18.276;2024-01-15T08:30:38;96872.47;;;0.10;78.22
78317;BME280;67572;50.930;18.276;2024-01-15T08:33:43;96868.09;;;0.11;78.35
78317;BME280;67572;50.930;18.276;2024-01-15T08:36:47;96874.03;;;0.13;78.46
78317;BME280;67572;50.930;18.276;2024-01-15T08:39:50;96866.28;;;0.25;77.62
78317;BME280;67572;50.930;18.276;2024-01-15T08:42:53;96863.00;;;0.22;77.22
78317;BME280;67572;50.930;18.276;2024-01-15T08:45:57;96870.78;;;0.23;76.84
78317;BME280;67572;50.930;18.276;2024-01-15T08:49:03;96873.16;;;0.41;76.17
78317;BME280;67572;50.930;18.276;2024-01-15T08:52:06;96872.91;;;0.31;75.72
78317;BME280;67572;50.930;18.276;2024-01-15T08:55:12;96866.44;;;0.37;75.26
78317;BME280;67572;50.930;18.276;2024-01-15T08:58:16;96862.38;;;0.45;75.15
78317;BME280;67572;50.930;18.276;2024-01-15T09:01:19;96860.41;;;0.49;74.77
78317;BME280;67572;50.930;18.276;2024-01-15T09:04:24;96856.47;;;0.56;74.29
78317;BME280;67572;50.930;18.276;2024-01-15T09:07:27;96861.91;;;0.53;74.02
78317;BME280;67572;50.930;18.276;2024-01-15T09:10:31;96855.63;;;0.55;73.49
78317;BME280;67572;50.930;18.276;2024-01-15T09:13:34;96859.72;;;0.60;72.96
78317;BME280;67572;50.930;18.276;2024-01-15T09:16:37;96859.94;;;0.57;72.65
78317;BME280;67572;50.930;18.276;2024-01-15T09:19:42;96862.97;;;0.63;72.41
78317;BME280;67572;50.930;18.276;2024-01-15T09:22:45;96856.72;;;0.66;72.14
78317;BME280;67572;50.930;18.276;2024-01-15T09:25:49;96857.97;;;0.73;71.72
78317;BME280;67572;50.930;18.276;2024-01-15T09:28:54;96862.97;;;0.63;72.03
78317;BME280;67572;50.930;18.276;2024-01-15T09:31:57;96865.06;;;0.58;72.21
78317;BME280;67572;50.930;18.276;2024-01-15T09:35:02;96853.59;;;0.73;71.99
78317;BME280;67572;50.930;18.276;2024-01-15T09:38:06;96851.41;;;0.80;71.83
78317;BME280;67572;50.930;18.276;2024-01-15T09:41:09;96857.31;;;0.57;71.94
78317;BME280;67572;50.930;18.276;2024-01-15T09:44:13;96845.56;;;0.49;72.05
78317;BME280;67572;50.930;18.276;2024-01-15T09:47:18;96842.69;;;0.67;72.22
78317;BME280;67572;50.930;18.276;2024-01-15T09:50:23;96849.38;;;0.58;72.23
78317;BME280;67572;50.930;18.276;2024-01-15T09:53:26;96844.56;;;0.65;72.26
78317;BME280;67572;50.930;18.276;2024-01-15T09:56:30;96846.63;;;0.47;72.66
78317;BME280;67572;50.930;18.276;2024-01-15T09:59:34;96850.97;;;0.61;72.56
78317;BME280;67572;50.930;18.276;2024-01-15T10:02:39;96844.72;;;0.49;72.54
78317;BME280;67572;50.930;18.276;2024-01-15T10:05:44;96847.75;;;0.43;72.86
78317;BME280;67572;50.930;18.276;2024-01-15T10:08:50;96839.06;;;0.42;72.70
78317;BME280;67572;50.930;18.276;2024-01-15T10:11:54;96840.78;;;0.56;72.19
78317;BME280;67572;50.930;18.276;2024-01-15T10:14:57;96846.06;;;0.42;72.63
78317;BME280;67572;50.930;18.276;2024-01-15T10:18:01;96839.94;;;0.28;72.51
78317;BME280;67572;50.930;18.276;2024-01-15T10:21:06;96844.50;;;0.39;72.76
78317;BME280;67572;50.930;18.276;2024-01-15T10:24:12;96845.00;;;0.32;72.39
78317;BME280;67572;50.930;18.276;2024-01-15T10:27:16;96839.00;;;0.30;72.25
78317;BME280;67572;50.930;18.276;2024-01-15T10:30:19;96829.81;;;0.24;72.22
78317;BME280;67572;50.930;18.276;2024-01-15T10:33:23;96830.25;;;0.31;72.25
78317;BME280;67572;50.930;18.276;2024-01-15T10:36:29;96832.78;;;0.45;71.82
78317;BME280;67572;50.930;18.276;2024-01-15T10:39:33;96838.47;;;0.24;71.81
78317;BME280;67572;50.930;18.276;2024-01-15T10:42:36;96834.97;;;0.38;71.73
78317;BME280;67572;50.930;18.276;2024-01-15T10:45:40;96835.66;;;0.27;71.07
78317;BME280;67572;50.930;18.276;2024-01-15T10:48:43;96841.00;;;0.53;71.13
78317;BME280;67572;50.930;18.276;2024-01-15T10:51:49;96846.78;;;0.31;71.33
78317;BME280;67572;50.930;18.276;2024-01-15T10:54:54;96845.69;;;0.48;71.14
78317;BME280;67572;50.930;18.276;2024-01-15T10:57:57;96840.72;;;0.43;70.64
78317;BME280;67572;50.930;18.276;2024-01-15T11:01:01;96839.16;;;0.41;70.77
78317;BME280;67572;50.930;18.276;2024-01-15T11:04:06;96842.44;;;0.30;70.80
78317;BME280;67572;50.930;18.276;2024-01-15T11:07:11;96835.06;;;0.37;71.03
78317;BME280;67572;50.930;18.276;2024-01-15T11:10:38;96836.00;;;0.36;70.70
78317;BME280;67572;50.930;18.276;2024-01-15T11:13:42;96841.09;;;0.24;70.94
78317;BME280;67572;50.930;18.276;2024-01-15T11:16:56;96846.94;;;0.28;71.19
78317;BME280;67572;50.930;18.276;2024-01-15T11:20:06;96840.09;;;0.40;70.94
78317;BME280;67572;50.930;18.276;2024-01-15T11:23:43;96847.19;;;0.38;70.82
78317;BME280;67572;50.930;18.276;2024-01-15T11:26:52;96839.50;;;0.49;70.45
78317;BME280;67572;50.930;18.276;2024-01-15T11:30:03;96837.38;;;0.41;70.73
78317;BME280;67572;50.930;18.276;2024-01-15T11:33:33;96842.06;;;0.63;69.63
78317;BME280;67572;50.930;18.276;2024-01-15T11:37:03;96848.63;;;0.56;70.04
78317;BME280;67572;50.930;18.276;2024-01-15T11:40:10;96834.94;;;0.65;69.71
78317;BME280;67572;50.930;18.276;2024-01-15T11:43:14;96825.53;;;0.75;68.98
78317;BME280;67572;50.930;18.276;2024-01-15T11:46:25;96819.66;;;0.59;69.34
78317;BME280;67572;50.930;18.276;2024-01-15T11:50:00;96824.38;;;0.67;69.21
78317;BME280;67572;50.930;18.276;2024-01-15T11:53:13;96818.31;;;0.66;69.30
78317;BME280;67572;50.930;18.276;2024-01-15T11:56:22;96817.34;;;0.54;69.03
78317;BME280;67572;50.930;18.276;2024-01-15T11:59:26;96832.66;;;0.61;69.17
78317;BME280;67572;50.930;18.276;2024-01-15T12:02:30;96825.94;;;0.57;69.18
78317;BME280;67572;50.930;18.276;2024-01-15T12:05:33;96828.94;;;0.50;68.89
78317;BME280;67572;50.930;18.276;2024-01-15T12:08:36;96824.88;;;0.59;69.22
78317;BME280;67572;50.930;18.276;2024-01-15T12:11:59;96832.22;;;0.54;68.80
78317;BME280;67572;50.930;18.276;2024-01-15T12:15:08;96826.38;;;0.63;68.39
78317;BME280;67572;50.930;18.276;2024-01-15T12:18:12;96829.59;;;0.67;68.40
78317;BME280;67572;50.930;18.276;2024-01-15T12:21:16;96822.81;;;0.64;68.71
78317;BME280;67572;50.930;18.276;2024-01-15T12:24:20;96831.06;;;0.58;68.48
78317;BME280;67572;50.930;18.276;2024-01-15T12:27:25;96843.75;;;0.64;68.58
78317;BME280;67572;50.930;18.276;2024-01-15T12:30:29;96828.25;;;0.61;67.99
78317;BME280;67572;50.930;18.276;2024-01-15T12:33:33;96835.78;;;0.53;67.95
78317;BME280;67572;50.930;18.276;2024-01-15T12:36:37;96843.28;;;0.58;68.10
78317;BME280;67572;50.930;18.276;2024-01-15T12:39:42;96843.44;;;0.69;68.16
78317;BME280;67572;50.930;18.276;2024-01-15T12:42:47;96837.34;;;0.55;67.87
78317;BME280;67572;50.930;18.276;2024-01-15T12:45:51;96837.97;;;0.59;68.34
78317;BME280;67572;50.930;18.276;2024-01-15T12:48:55;96833.53;;;0.47;67.81
78317;BME280;67572;50.930;18.276;2024-01-15T12:51:59;96825.69;;;0.47;67.73
78317;BME280;67572;50.930;18.276;2024-01-15T12:55:04;96840.56;;;0.46;67.42
78317;BME280;67572;50.930;18.276;2024-01-15T12:58:09;96825.09;;;0.56;67.10
78317;BME280;67572;50.930;18.276;2024-01-15T13:01:12;96837.72;;;0.76;66.92
78317;BME280;67572;50.930;18.276;2024-01-15T13:04:21;96827.31;;;0.62;67.48
78317;BME280;67572;50.930;18.276;2024-01-15T13:07:27;96821.94;;;0.51;67.33
78317;BME280;67572;50.930;18.276;2024-01-15T13:10:31;96825.25;;;0.40;67.42
78317;BME280;67572;50.930;18.276;2024-01-15T13:13:36;96825.25;;;0.40;67.48
78317;BME280;67572;50.930;18.276;2024-01-15T13:16:39;96837.28;;;0.43;67.87
78317;BME280;67572;50.930;18.276;2024-01-15T13:19:43;96827.31;;;0.35;67.38
78317;BME280;67572;50.930;18.276;2024-01-15T13:22:47;96827.31;;;0.35;67.53
78317;BME280;67572;50.930;18.276;2024-01-15T13:25:50;96834.03;;;0.39;67.89
78317;BME280;67572;50.930;18.276;2024-01-15T13:28:55;96833.78;;;0.30;68.05
78317;BME280;67572;50.930;18.276;2024-01-15T13:31:58;96835.72;;;0.40;67.96
78317;BME280;67572;50.930;18.276;2024-01-15T13:35:02;96840.50;;;0.34;68.37
78317;BME280;67572;50.930;18.276;2024-01-15T13:38:07;96848.06;;;0.38;68.54
78317;BME280;67572;50.930;18.276;2024-01-15T13:41:13;96834.72;;;0.28;68.03
78317;BME280;67572;50.930;18.276;2024-01-15T13:44:18;96831.72;;;0.35;68.22
78317;BME280;67572;50.930;18.276;2024-01-15T13:47:24;96833.59;;;0.33;68.59
78317;BME280;67572;50.930;18.276;2024-01-15T13:50:27;96824.91;;;0.32;68.57
78317;BME280;67572;50.930;18.276;2024-01-15T13:53:34;96835.66;;;0.27;68.53
78317;BME280;67572;50.930;18.276;2024-01-15T13:56:38;96834.19;;;0.23;68.50
78317;BME280;67572;50.930;18.276;2024-01-15T13:59:43;96845.16;;;0.28;68.67
78317;BME280;67572;50.930;18.276;2024-01-15T14:02:47;96838.59;;;0.23;68.59
78317;BME280;67572;50.930;18.276;2024-01-15T14:05:50;96843.97;;;0.20;68.41
78317;BME280;67572;50.930;18.276;2024-01-15T14:08:53;96848.47;;;0.18;68.47
78317;BME280;67572;50.930;18.276;2024-01-15T14:11:57;96851.72;;;0.21;68.23
78317;BME280;67572;50.930;18.276;2024-01-15T14:15:02;96855.47;;;0.17;68.61
78317;BME280;67572;50.930;18.276;2024-01-15T14:18:06;96848.59;;;0.16;68.82
78317;BME280;67572;50.930;18.276;2024-01-15T14:21:09;96848.53;;;0.31;68.45
78317;BME280;67572;50.930;18.276;2024-01-15T14:24:12;96847.31;;;0.22;68.68
78317;BME280;67572;50.930;18.276;2024-01-15T14:27:16;96859.38;;;0.24;68.60
78317;BME280;67572;50.930;18.276;2024-01-15T14:30:21;96854.06;;;0.26;68.68
78317;BME280;67572;50.930;18.276;2024-01-15T14:33:24;96843.81;;;0.23;68.84
78317;BME280;67572;50.930;18.276;2024-01-15T14:36:28;96831.84;;;0.19;68.79
78317;BME280;67572;50.930;18.276;2024-01-15T14:39:31;96832.97;;;0.15;69.09
78317;BME280;67572;50.930;18.276;2024-01-15T14:42:41;96841.47;;;0.18;69.15
78317;BME280;67572;50.930;18.276;2024-01-15T14:45:46;96828.41;;;0.18;69.24
78317;BME280;67572;50.930;18.276;2024-01-15T14:48:50;96828.78;;;0.12;68.98
78317;BME280;67572;50.930;18.276;2024-01-15T14:51:53;96837.09;;;0.19;69.25
78317;BME280;67572;50.930;18.276;2024-01-15T14:54:57;96832.34;;;0.11;69.24
78317;BME280;67572;50.930;18.276;2024-01-15T14:58:00;96832.25;;;0.13;69.33
78317;BME280;67572;50.930;18.276;2024-01-15T15:01:06;96839.97;;;0.14;69.75
78317;BME280;67572;50.930;18.276;2024-01-15T15:04:09;96844.19;;;0.17;69.59
78317;BME280;67572;50.930;18.276;2024-01-15T15:07:13;96846.97;;;0.14;69.49
78317;BME280;67572;50.930;18.276;2024-01-15T15:10:17;96846.97;;;0.14;69.37
78317;BME280;67572;50.930;18.276;2024-01-15T15:13:20;96853.97;;;0.13;69.65
78317;BME280;67572;50.930;18.276;2024-01-15T15:16:44;96847.91;;;0.13;69.69
78317;BME280;67572;50.930;18.276;2024-01-15T15:19:48;96856.81;;;0.10;69.68
78317;BME280;67572;50.930;18.276;2024-01-15T15:22:54;96867.25;;;0.10;69.88
78317;BME280;67572;50.930;18.276;2024-01-15T15:25:58;96875.72;;;0.14;70.30
78317;BME280;67572;50.930;18.276;2024-01-15T15:29:02;96874.16;;;0.11;70.11
78317;BME280;67572;50.930;18.276;2024-01-15T15:32:07;96880.31;;;0.10;70.22
78317;BME280;67572;50.930;18.276;2024-01-15T15:35:10;96872.38;;;0.12;70.00
78317;BME280;67572;50.930;18.276;2024-01-15T15:38:15;96879.38;;;0.11;70.12
78317;BME280;67572;50.930;18.276;2024-01-15T15:41:18;96872.66;;;0.07;70.32
78317;BME280;67572;50.930;18.276;2024-01-15T15:44:21;96869.88;;;0.10;69.95
78317;BME280;67572;50.930;18.276;2024-01-15T15:47:26;96864.53;;;0.12;69.83
78317;BME280;67572;50.930;18.276;2024-01-15T15:50:30;96865.84;;;0.19;69.50
78317;BME280;67572;50.930;18.276;2024-01-15T15:53:36;96866.94;;;0.15;69.64
78317;BME280;67572;50.930;18.276;2024-01-15T15:56:39;96869.97;;;0.09;69.95
78317;BME280;67572;50.930;18.276;2024-01-15T15:59:44;96875.81;;;0.12;69.97
78317;BME280;67572;50.930;18.276;2024-01-15T16:02:49;96886.28;;;0.12;69.55
78317;BME280;67572;50.930;18.276;2024-01-15T16:05:52;96871.53;;;0.11;69.33
78317;BME280;67572;50.930;18.276;2024-01-15T16:08:55;96871.75;;;0.08;69.38
78317;BME280;67572;50.930;18.276;2024-01-15T16:11:58;96872.00;;;0.18;69.47
78317;BME280;67572;50.930;18.276;2024-01-15T16:15:02;96886.66;;;0.06;69.38